sensor_id;sensor_type;location;lat;lon;timestamp;P1;durP1;ratioP1;P2;durP2;ratioP2
77798;SDS011;66989;50.426;15.352;2024-02-15T00:01:26;17.75;;;10.45;;
77798;SDS011;66989;50.426;15.352;2024-02-15T00:03:52;19.33;;;12.50;;
77798;SDS011;66989;50.426;15.352;2024-02-15T00:06:17;20.67;;;12.20;;
77798;SDS011;66989;50.426;15.352;2024-02-15T00:08:44;16.20;;;10.60;;
77798;SDS011;66989;50.426;15.352;2024-02-15T00:11:10;17.38;;;11.27;;
77798;SDS011;66989;50.426;15.352;2024-02-15T00:13:35;23.42;;;14.25;;
77798;SDS011;66989;50.426;15.352;2024-02-15T00:16:02;17.05;;;11.57;;
77798;SDS011;66989;50.426;15.352;2024-02-15T00:18:28;17.27;;;11.15;;
77798;SDS011;66989;50.426;15.352;2024-02-15T00:20:53;13.68;;;9.68;;
77798;SDS011;66989;50.426;15.352;2024-02-15T00:23:19;15.30;;;11.00;;
77798;SDS011;66989;50.426;15.352;2024-02-15T00:25:44;16.77;;;11.18;;
77798;SDS011;66989;50.426;15.352;2024-02-15T00:28:13;20.15;;;12.82;;
77798;SDS011;66989;50.426;15.352;2024-02-15T00:30:38;19.05;;;11.68;;
77798;SDS011;66989;50.426;15.352;2024-02-15T00:33:04;19.23;;;12.57;;
77798;SDS011;66989;50.426;15.352;2024-02-15T00:35:29;22.27;;;14.98;;
77798;SDS011;66989;50.426;15.352;2024-02-15T00:37:54;23.85;;;14.73;;
77798;SDS011;66989;50.426;15.352;2024-02-15T00:40:20;17.80;;;11.77;;
77798;SDS011;66989;50.426;15.352;2024-02-15T00:42:46;17.98;;;11.45;;
77798;SDS011;66989;50.426;15.352;2024-02-15T00:45:11;24.02;;;11.65;;
77798;SDS011;66989;50.426;15.352;2024-02-15T00:47:37;20.88;;;10.95;;
77798;SDS011;66989;50.426;15.352;2024-02-15T00:50:03;16.23;;;10.70;;
77798;SDS011;66989;50.426;15.352;2024-02-15T00:52:29;19.20;;;12.13;;
77798;SDS011;66989;50.426;15.352;2024-02-15T00:54:55;19.05;;;14.13;;
77798;SDS011;66989;50.426;15.352;2024-02-15T00:57:21;17.48;;;11.35;;
77798;SDS011;66989;50.426;15.352;2024-02-15T00:59:46;18.30;;;10.98;;
77798;SDS011;66989;50.426;15.352;2024-02-15T01:02:12;17.63;;;12.00;;
77798;SDS011;66989;50.426;15.352;2024-02-15T01:04:38;18.85;;;12.18;;
77798;SDS011;66989;50.426;15.352;2024-02-15T01:07:04;19.25;;;11.77;;
77798;SDS011;66989;50.426;15.352;2024-02-15T01:09:29;21.80;;;11.50;;
77798;SDS011;66989;50.426;15.352;2024-02-15T01:11:55;21.70;;;13.32;;
77798;SDS011;66989;50.426;15.352;2024-02-15T01:14:20;18.77;;;13.15;;
77798;SDS011;66989;50.426;15.352;2024-02-15T01:16:45;15.85;;;11.07;;
77798;SDS011;66989;50.426;15.352;2024-02-15T01:19:11;21.42;;;12.25;;
77798;SDS011;66989;50.426;15.352;2024-02-15T01:21:37;15.88;;;10.75;;
77798;SDS011;66989;50.426;15.352;2024-02-15T01:24:02;16.87;;;10.07;;
77798;SDS011;66989;50.426;15.352;2024-02-15T01:26:28;17.90;;;11.85;;
77798;SDS011;66989;50.426;15.352;2024-02-15T01:28:54;18.40;;;12.00;;
77798;SDS011;66989;50.426;15.352;2024-02-15T01:31:20;19.80;;;11.88;;
77798;SDS011;66989;50.426;15.352;2024-02-15T01:33:45;16.58;;;10.85;;
77798;SDS011;66989;50.426;15.352;2024-02-15T01:36:14;15.63;;;11.10;;
77798;SDS011;66989;50.426;15.352;2024-02-15T01:38:41;21.33;;;12.32;;
77798;SDS011;66989;50.426;15.352;2024-02-15T01:41:07;17.80;;;9.77;;
77798;SDS011;66989;50.426;15.352;2024-02-15T01:43:33;17.15;;;10.93;;
77798;SDS011;66989;50.426;15.352;2024-02-15T01:45:58;20.00;;;11.30;;
77798;SDS011;66989;50.426;15.352;2024-02-15T01:48:28;16.77;;;9.63;;
77798;SDS011;66989;50.426;15.352;2024-02-15T01:50:54;17.50;;;10.68;;
77798;SDS011;66989;50.426;15.352;2024-02-15T01:53:20;18.13;;;10.77;;
77798;SDS011;66989;50.426;15.352;2024-02-15T01:55:45;18.02;;;12.32;;
77798;SDS011;66989;50.426;15.352;2024-02-15T01:58:11;16.60;;;10.70;;
77798;SDS011;66989;50.426;15.352;2024-02-15T02:00:37;17.70;;;11.68;;
77798;SDS011;66989;50.426;15.352;2024-02-15T02:03:04;17.95;;;11.15;;
77798;SDS011;66989;50.426;15.352;2024-02-15T02:05:30;20.15;;;12.02;;
77798;SDS011;66989;50.426;15.352;2024-02-15T02:07:56;18.35;;;10.45;;
77798;SDS011;66989;50.426;15.352;2024-02-15T02:10:29;19.75;;;11.73;;
77798;SDS011;66989;50.426;15.352;2024-02-15T02:12:57;15.18;;;10.07;;
77798;SDS011;66989;50.426;15.352;2024-02-15T02:15:24;15.52;;;10.30;;
77798;SDS011;66989;50.426;15.352;2024-02-15T02:17:50;15.10;;;9.98;;
77798;SDS011;66989;50.426;15.352;2024-02-15T02:20:18;16.35;;;9.40;;
77798;SDS011;66989;50.426;15.352;2024-02-15T02:22:45;14.27;;;9.63;;
77798;SDS011;66989;50.426;15.352;2024-02-15T02:25:13;13.07;;;9.13;;
77798;SDS011;66989;50.426;15.352;2024-02-15T02:27:38;14.02;;;9.80;;
77798;SDS011;66989;50.426;15.352;2024-02-15T02:30:05;15.27;;;9.30;;
77798;SDS011;66989;50.426;15.352;2024-02-15T02:32:40;16.13;;;10.57;;
77798;SDS011;66989;50.426;15.352;2024-02-15T02:35:06;15.50;;;9.75;;
77798;SDS011;66989;50.426;15.352;2024-02-15T02:37:32;16.63;;;11.07;;
77798;SDS011;66989;50.426;15.352;2024-02-15T02:40:01;15.57;;;11.45;;
77798;SDS011;66989;50.426;15.352;2024-02-15T02:42:28;16.92;;;11.80;;
77798;SDS011;66989;50.426;15.352;2024-02-15T02:44:53;17.70;;;11.20;;
77798;SDS011;66989;50.426;15.352;2024-02-15T02:47:18;16.08;;;10.10;;
77798;SDS011;66989;50.426;15.352;2024-02-15T02:49:44;17.83;;;10.18;;
77798;SDS011;66989;50.426;15.352;2024-02-15T02:52:09;17.77;;;11.50;;
77798;SDS011;66989;50.426;15.352;2024-02-15T02:54:34;17.50;;;10.40;;
77798;SDS011;66989;50.426;15.352;2024-02-15T02:57:00;15.07;;;9.57;;
77798;SDS011;66989;50.426;15.352;2024-02-15T02:59:26;18.83;;;12.18;;
77798;SDS011;66989;50.426;15.352;2024-02-15T03:01:51;16.88;;;10.68;;
77798;SDS011;66989;50.426;15.352;2024-02-15T03:04:17;18.50;;;12.35;;
77798;SDS011;66989;50.426;15.352;2024-02-15T03:06:43;14.47;;;9.73;;
77798;SDS011;66989;50.426;15.352;2024-02-15T03:09:09;18.08;;;12.02;;
77798;SDS011;66989;50.426;15.352;2024-02-15T03:11:35;14.07;;;9.52;;
77798;SDS011;66989;50.426;15.352;2024-02-15T03:14:01;13.85;;;8.15;;
77798;SDS011;66989;50.426;15.352;2024-02-15T03:16:29;20.67;;;11.93;;
77798;SDS011;66989;50.426;15.352;2024-02-15T03:18:58;15.25;;;9.93;;
77798;SDS011;66989;50.426;15.352;2024-02-15T03:21:26;16.38;;;10.65;;
77798;SDS011;66989;50.426;15.352;2024-02-15T03:23:51;19.52;;;11.73;;
77798;SDS011;66989;50.426;15.352;2024-02-15T03:26:19;18.10;;;11.10;;
77798;SDS011;66989;50.426;15.352;2024-02-15T03:28:54;15.55;;;10.63;;
77798;SDS011;66989;50.426;15.352;2024-02-15T03:31:20;14.07;;;8.82;;
77798;SDS011;66989;50.426;15.352;2024-02-15T03:33:45;15.98;;;9.50;;
77798;SDS011;66989;50.426;15.352;2024-02-15T03:36:10;15.90;;;10.35;;
77798;SDS011;66989;50.426;15.352;2024-02-15T03:38:36;18.90;;;10.75;;
77798;SDS011;66989;50.426;15.352;2024-02-15T03:41:02;16.42;;;9.90;;
77798;SDS011;66989;50.426;15.352;2024-02-15T03:43:27;16.48;;;9.73;;
77798;SDS011;66989;50.426;15.352;2024-02-15T03:45:52;15.47;;;9.90;;
77798;SDS011;66989;50.426;15.352;2024-02-15T03:48:18;15.05;;;9.32;;
77798;SDS011;66989;50.426;15.352;2024-02-15T03:50:43;15.73;;;8.77;;
77798;SDS011;66989;50.426;15.352;2024-02-15T03:53:10;19.25;;;8.80;;
77798;SDS011;66989;50.426;15.352;2024-02-15T03:55:38;12.77;;;8.60;;
77798;SDS011;66989;50.426;15.352;2024-02-15T03:58:04;12.07;;;8.93;;
77798;SDS011;66989;50.426;15.352;2024-02-15T04:00:29;17.52;;;9.98;;
77798;SDS011;66989;50.426;15.352;2024-02-15T04:02:55;11.80;;;8.13;;
77798;SDS011;66989;50.426;15.352;2024-02-15T04:05:21;14.07;;;8.90;;
77798;SDS011;66989;50.426;15.352;2024-02-15T04:07:48;12.52;;;8.40;;
77798;SDS011;66989;50.426;15.352;2024-02-15T04:10:13;16.33;;;8.18;;
77798;SDS011;66989;50.426;15.352;2024-02-15T04:12:39;14.50;;;8.57;;
77798;SDS011;66989;50.426;15.352;2024-02-15T04:15:07;16.88;;;9.38;;
77798;SDS011;66989;50.426;15.352;2024-02-15T04:17:37;13.85;;;8.75;;
77798;SDS011;66989;50.426;15.352;2024-02-15T04:20:05;14.13;;;8.07;;
77798;SDS011;66989;50.426;15.352;2024-02-15T04:22:32;15.55;;;10.32;;
77798;SDS011;66989;50.426;15.352;2024-02-15T04:25:01;14.43;;;8.98;;
77798;SDS011;66989;50.426;15.352;2024-02-15T04:27:31;13.80;;;8.50;;
77798;SDS011;66989;50.426;15.352;2024-02-15T04:29:56;13.27;;;7.85;;
77798;SDS011;66989;50.426;15.352;2024-02-15T04:32:22;38.95;;;21.25;;
77798;SDS011;66989;50.426;15.352;2024-02-15T04:34:47;24.88;;;13.15;;
77798;SDS011;66989;50.426;15.352;2024-02-15T04:37:13;19.08;;;12.48;;
77798;SDS011;66989;50.426;15.352;2024-02-15T04:39:39;16.83;;;11.25;;
77798;SDS011;66989;50.426;15.352;2024-02-15T04:42:05;16.75;;;10.32;;
77798;SDS011;66989;50.426;15.352;2024-02-15T04:44:32;13.20;;;8.50;;
77798;SDS011;66989;50.426;15.352;2024-02-15T04:47:00;17.08;;;9.52;;
77798;SDS011;66989;50.426;15.352;2024-02-15T04:49:26;16.08;;;10.35;;
77798;SDS011;66989;50.426;15.352;2024-02-15T04:51:54;15.13;;;8.48;;
77798;SDS011;66989;50.426;15.352;2024-02-15T04:54:19;17.55;;;11.02;;
77798;SDS011;66989;50.426;15.352;2024-02-15T04:56:45;15.00;;;9.38;;
77798;SDS011;66989;50.426;15.352;2024-02-15T04:59:11;14.50;;;9.07;;
77798;SDS011;66989;50.426;15.352;2024-02-15T05:01:47;16.65;;;10.27;;
77798;SDS011;66989;50.426;15.352;2024-02-15T05:04:14;18.33;;;9.75;;
77798;SDS011;66989;50.426;15.352;2024-02-15T05:06:40;13.43;;;8.85;;
77798;SDS011;66989;50.426;15.352;2024-02-15T05:09:05;20.27;;;12.70;;
77798;SDS011;66989;50.426;15.352;2024-02-15T05:11:39;14.57;;;9.13;;
77798;SDS011;66989;50.426;15.352;2024-02-15T05:14:11;20.70;;;11.98;;
77798;SDS011;66989;50.426;15.352;2024-02-15T05:16:37;16.17;;;9.02;;
77798;SDS011;66989;50.426;15.352;2024-02-15T05:19:07;17.38;;;9.88;;
77798;SDS011;66989;50.426;15.352;2024-02-15T05:21:34;18.60;;;10.25;;
77798;SDS011;66989;50.426;15.352;2024-02-15T05:23:59;15.90;;;8.90;;
77798;SDS011;66989;50.426;15.352;2024-02-15T05:26:24;17.90;;;9.77;;
77798;SDS011;66989;50.426;15.352;2024-02-15T05:28:50;14.70;;;9.27;;
77798;SDS011;66989;50.426;15.352;2024-02-15T05:31:17;16.20;;;8.93;;
77798;SDS011;66989;50.426;15.352;2024-02-15T05:33:45;16.08;;;9.07;;
77798;SDS011;66989;50.426;15.352;2024-02-15T05:36:20;13.77;;;10.00;;
77798;SDS011;66989;50.426;15.352;2024-02-15T05:38:47;13.23;;;9.10;;
77798;SDS011;66989;50.426;15.352;2024-02-15T05:41:15;12.30;;;8.23;;
77798;SDS011;66989;50.426;15.352;2024-02-15T05:43:41;11.30;;;7.90;;
77798;SDS011;66989;50.426;15.352;2024-02-15T05:46:07;12.02;;;7.85;;
77798;SDS011;66989;50.426;15.352;2024-02-15T05:48:33;13.98;;;9.13;;
77798;SDS011;66989;50.426;15.352;2024-02-15T05:51:05;13.15;;;9.80;;
77798;SDS011;66989;50.426;15.352;2024-02-15T05:53:32;14.82;;;9.27;;
77798;SDS011;66989;50.426;15.352;2024-02-15T05:56:01;15.70;;;10.43;;
77798;SDS011;66989;50.426;15.352;2024-02-15T05:58:30;11.85;;;9.02;;
77798;SDS011;66989;50.426;15.352;2024-02-15T06:00:56;13.75;;;10.38;;
77798;SDS011;66989;50.426;15.352;2024-02-15T06:03:26;13.82;;;8.85;;
77798;SDS011;66989;50.426;15.352;2024-02-15T06:05:52;17.92;;;9.95;;
77798;SDS011;66989;50.426;15.352;2024-02-15T06:08:23;11.52;;;7.65;;
77798;SDS011;66989;50.426;15.352;2024-02-15T06:10:48;12.93;;;9.23;;
77798;SDS011;66989;50.426;15.352;2024-02-15T06:13:15;18.10;;;12.13;;
77798;SDS011;66989;50.426;15.352;2024-02-15T06:15:40;16.98;;;11.40;;
77798;SDS011;66989;50.426;15.352;2024-02-15T06:18:06;14.13;;;10.20;;
77798;SDS011;66989;50.426;15.352;2024-02-15T06:20:36;12.88;;;9.38;;
77798;SDS011;66989;50.426;15.352;2024-02-15T06:23:02;14.00;;;9.73;;
77798;SDS011;66989;50.426;15.352;2024-02-15T06:25:32;17.00;;;10.73;;
77798;SDS011;66989;50.426;15.352;2024-02-15T06:27:58;16.38;;;11.48;;
77798;SDS011;66989;50.426;15.352;2024-02-15T06:30:27;13.20;;;9.82;;
77798;SDS011;66989;50.426;15.352;2024-02-15T06:33:11;15.18;;;10.20;;
77798;SDS011;66989;50.426;15.352;2024-02-15T06:35:55;16.95;;;9.95;;
77798;SDS011;66989;50.426;15.352;2024-02-15T06:38:39;17.77;;;12.10;;
77798;SDS011;66989;50.426;15.352;2024-02-15T06:41:23;15.57;;;9.93;;
77798;SDS011;66989;50.426;15.352;2024-02-15T06:43:49;15.43;;;10.38;;
77798;SDS011;66989;50.426;15.352;2024-02-15T06:46:14;16.15;;;9.88;;
77798;SDS011;66989;50.426;15.352;2024-02-15T06:48:41;14.60;;;10.93;;
77798;SDS011;66989;50.426;15.352;2024-02-15T06:51:11;15.85;;;11.00;;
77798;SDS011;66989;50.426;15.352;2024-02-15T06:53:39;18.30;;;10.18;;
77798;SDS011;66989;50.426;15.352;2024-02-15T06:56:05;15.80;;;9.63;;
77798;SDS011;66989;50.426;15.352;2024-02-15T06:58:30;19.15;;;11.35;;
77798;SDS011;66989;50.426;15.352;2024-02-15T07:00:56;15.32;;;10.32;;
77798;SDS011;66989;50.426;15.352;2024-02-15T07:03:21;17.65;;;10.68;;
77798;SDS011;66989;50.426;15.352;2024-02-15T07:05:47;16.77;;;10.40;;
77798;SDS011;66989;50.426;15.352;2024-02-15T07:08:13;15.52;;;10.35;;
77798;SDS011;66989;50.426;15.352;2024-02-15T07:10:39;16.25;;;10.30;;
77798;SDS011;66989;50.426;15.352;2024-02-15T07:13:05;17.92;;;9.90;;
77798;SDS011;66989;50.426;15.352;2024-02-15T07:15:33;14.27;;;9.35;;
77798;SDS011;66989;50.426;15.352;2024-02-15T07:18:04;14.43;;;10.93;;
77798;SDS011;66989;50.426;15.352;2024-02-15T07:20:31;12.95;;;9.57;;
77798;SDS011;66989;50.426;15.352;2024-02-15T07:22:57;12.88;;;8.23;;
77798;SDS011;66989;50.426;15.352;2024-02-15T07:25:23;18.65;;;12.10;;
77798;SDS011;66989;50.426;15.352;2024-02-15T07:27:48;18.95;;;12.27;;
77798;SDS011;66989;50.426;15.352;2024-02-15T07:30:14;21.53;;;12.70;;
77798;SDS011;66989;50.426;15.352;2024-02-15T07:32:39;27.83;;;16.27;;
77798;SDS011;66989;50.426;15.352;2024-02-15T07:35:05;20.75;;;14.10;;
77798;SDS011;66989;50.426;15.352;2024-02-15T07:37:33;20.27;;;12.45;;
77798;SDS011;66989;50.426;15.352;2024-02-15T07:39:58;21.67;;;11.63;;
77798;SDS011;66989;50.426;15.352;2024-02-15T07:42:24;16.60;;;12.20;;
77798;SDS011;66989;50.426;15.352;2024-02-15T07:44:50;16.05;;;11.50;;
77798;SDS011;66989;50.426;15.352;2024-02-15T07:47:17;15.68;;;11.27;;
77798;SDS011;66989;50.426;15.352;2024-02-15T07:49:48;17.48;;;11.05;;
77798;SDS011;66989;50.426;15.352;2024-02-15T07:52:14;17.55;;;11.57;;
77798;SDS011;66989;50.426;15.352;2024-02-15T07:54:39;17.63;;;10.57;;
77798;SDS011;66989;50.426;15.352;2024-02-15T07:57:05;14.57;;;9.85;;
77798;SDS011;66989;50.426;15.352;2024-02-15T07:59:30;16.73;;;9.95;;
77798;SDS011;66989;50.426;15.352;2024-02-15T08:01:56;15.02;;;10.40;;
77798;SDS011;66989;50.426;15.352;2024-02-15T08:04:21;16.58;;;12.13;;
77798;SDS011;66989;50.426;15.352;2024-02-15T08:06:48;16.08;;;10.43;;
77798;SDS011;66989;50.426;15.352;2024-02-15T08:09:15;12.07;;;8.43;;
77798;SDS011;66989;50.426;15.352;2024-02-15T08:11:43;15.90;;;11.70;;
77798;SDS011;66989;50.426;15.352;2024-02-15T08:14:09;17.65;;;11.80;;
77798;SDS011;66989;50.426;15.352;2024-02-15T08:16:35;20.17;;;10.65;;
77798;SDS011;66989;50.426;15.352;2024-02-15T08:19:02;20.92;;;11.07;;
77798;SDS011;66989;50.426;15.352;2024-02-15T08:21:31;17.98;;;10.88;;
77798;SDS011;66989;50.426;15.352;2024-02-15T08:24:02;20.05;;;9.38;;
77798;SDS011;66989;50.426;15.352;2024-02-15T08:26:31;17.08;;;10.38;;
77798;SDS011;66989;50.426;15.352;2024-02-15T08:28:57;22.58;;;12.15;;
77798;SDS011;66989;50.426;15.352;2024-02-15T08:31:22;16.33;;;9.93;;
77798;SDS011;66989;50.426;15.352;2024-02-15T08:33:48;16.67;;;9.75;;
77798;SDS011;66989;50.426;15.352;2024-02-15T08:36:14;21.83;;;11.23;;
77798;SDS011;66989;50.426;15.352;2024-02-15T08:38:39;14.65;;;9.20;;
77798;SDS011;66989;50.426;15.352;2024-02-15T08:41:06;15.02;;;8.77;;
77798;SDS011;66989;50.426;15.352;2024-02-15T08:43:33;20.08;;;10.30;;
77798;SDS011;66989;50.426;15.352;2024-02-15T08:45:58;20.77;;;11.05;;
77798;SDS011;66989;50.426;15.352;2024-02-15T08:48:24;17.20;;;10.23;;
77798;SDS011;66989;50.426;15.352;2024-02-15T08:50:51;20.83;;;11.15;;
77798;SDS011;66989;50.426;15.352;2024-02-15T08:53:16;14.45;;;9.52;;
77798;SDS011;66989;50.426;15.352;2024-02-15T08:55:44;22.50;;;10.02;;
77798;SDS011;66989;50.426;15.352;2024-02-15T08:58:13;15.50;;;9.63;;
77798;SDS011;66989;50.426;15.352;2024-02-15T09:00:38;16.75;;;11.77;;
77798;SDS011;66989;50.426;15.352;2024-02-15T09:03:09;19.33;;;9.65;;
77798;SDS011;66989;50.426;15.352;2024-02-15T09:05:35;14.90;;;9.57;;
77798;SDS011;66989;50.426;15.352;2024-02-15T09:08:00;16.48;;;10.80;;
77798;SDS011;66989;50.426;15.352;2024-02-15T09:10:26;16.07;;;9.57;;
77798;SDS011;66989;50.426;15.352;2024-02-15T09:12:52;15.98;;;10.13;;
77798;SDS011;66989;50.426;15.352;2024-02-15T09:15:17;17.38;;;10.43;;
77798;SDS011;66989;50.426;15.352;2024-02-15T09:17:43;17.20;;;9.52;;
77798;SDS011;66989;50.426;15.352;2024-02-15T09:20:11;18.10;;;10.80;;
77798;SDS011;66989;50.426;15.352;2024-02-15T09:22:41;20.15;;;10.52;;
77798;SDS011;66989;50.426;15.352;2024-02-15T09:25:07;24.45;;;11.18;;
77798;SDS011;66989;50.426;15.352;2024-02-15T09:27:34;24.13;;;10.20;;
77798;SDS011;66989;50.426;15.352;2024-02-15T09:29:59;18.03;;;11.20;;
77798;SDS011;66989;50.426;15.352;2024-02-15T09:32:25;20.10;;;10.60;;
77798;SDS011;66989;50.426;15.352;2024-02-15T09:34:50;19.27;;;10.90;;
77798;SDS011;66989;50.426;15.352;2024-02-15T09:37:15;15.30;;;10.27;;
77798;SDS011;66989;50.426;15.352;2024-02-15T09:39:41;16.75;;;11.23;;
77798;SDS011;66989;50.426;15.352;2024-02-15T09:42:06;19.63;;;11.40;;
77798;SDS011;66989;50.426;15.352;2024-02-15T09:44:32;15.20;;;12.05;;
77798;SDS011;66989;50.426;15.352;2024-02-15T09:47:06;20.55;;;11.57;;
77798;SDS011;66989;50.426;15.352;2024-02-15T09:49:35;24.58;;;11.43;;
77798;SDS011;66989;50.426;15.352;2024-02-15T09:52:02;16.50;;;9.80;;
77798;SDS011;66989;50.426;15.352;2024-02-15T09:54:29;19.77;;;10.90;;
77798;SDS011;66989;50.426;15.352;2024-02-15T09:56:55;18.17;;;10.00;;
77798;SDS011;66989;50.426;15.352;2024-02-15T09:59:26;21.17;;;10.77;;
77798;SDS011;66989;50.426;15.352;2024-02-15T10:01:51;19.42;;;10.13;;
77798;SDS011;66989;50.426;15.352;2024-02-15T10:04:22;14.98;;;10.05;;
77798;SDS011;66989;50.426;15.352;2024-02-15T10:06:47;19.60;;;11.47;;
77798;SDS011;66989;50.426;15.352;2024-02-15T10:12:07;17.60;;;11.77;;
77798;SDS011;66989;50.426;15.352;2024-02-15T10:14:34;18.60;;;11.30;;
77798;SDS011;66989;50.426;15.352;2024-02-15T10:17:05;20.25;;;11.60;;
77798;SDS011;66989;50.426;15.352;2024-02-15T10:19:34;18.10;;;12.82;;
77798;SDS011;66989;50.426;15.352;2024-02-15T10:22:05;17.40;;;10.52;;
77798;SDS011;66989;50.426;15.352;2024-02-15T10:24:31;13.38;;;10.70;;
77798;SDS011;66989;50.426;15.352;2024-02-15T10:27:00;18.70;;;12.20;;
77798;SDS011;66989;50.426;15.352;2024-02-15T10:29:32;16.33;;;10.07;;
77798;SDS011;66989;50.426;15.352;2024-02-15T10:32:01;18.40;;;10.13;;
77798;SDS011;66989;50.426;15.352;2024-02-15T10:34:28;12.82;;;9.25;;
77798;SDS011;66989;50.426;15.352;2024-02-15T10:39:23;14.48;;;9.50;;
77798;SDS011;66989;50.426;15.352;2024-02-15T10:41:52;17.08;;;10.85;;
77798;SDS011;66989;50.426;15.352;2024-02-15T10:44:22;19.45;;;11.02;;
77798;SDS011;66989;50.426;15.352;2024-02-15T10:46:49;19.75;;;12.30;;
77798;SDS011;66989;50.426;15.352;2024-02-15T10:49:22;22.02;;;11.77;;
77798;SDS011;66989;50.426;15.352;2024-02-15T10:51:55;17.80;;;11.32;;
77798;SDS011;66989;50.426;15.352;2024-02-15T10:54:40;19.58;;;12.25;;
77798;SDS011;66989;50.426;15.352;2024-02-15T10:57:11;16.35;;;12.10;;
77798;SDS011;66989;50.426;15.352;2024-02-15T10:59:39;17.65;;;11.38;;
77798;SDS011;66989;50.426;15.352;2024-02-15T11:04:52;21.27;;;12.52;;
77798;SDS011;66989;50.426;15.352;2024-02-15T11:07:25;16.35;;;10.45;;
77798;SDS011;66989;50.426;15.352;2024-02-15T11:09:54;15.77;;;10.57;;
77798;SDS011;66989;50.426;15.352;2024-02-15T11:12:23;15.00;;;10.27;;
77798;SDS011;66989;50.426;15.352;2024-02-15T11:14:53;17.75;;;11.70;;
77798;SDS011;66989;50.426;15.352;2024-02-15T11:20:05;13.13;;;9.68;;
77798;SDS011;66989;50.426;15.352;2024-02-15T11:22:34;16.70;;;10.82;;
77798;SDS011;66989;50.426;15.352;2024-02-15T11:25:04;18.35;;;11.60;;
77798;SDS011;66989;50.426;15.352;2024-02-15T11:27:35;15.25;;;11.45;;
77798;SDS011;66989;50.426;15.352;2024-02-15T11:30:03;18.67;;;11.05;;
77798;SDS011;66989;50.426;15.352;2024-02-15T11:32:50;18.92;;;12.48;;
77798;SDS011;66989;50.426;15.352;2024-02-15T11:35:24;16.52;;;12.02;;
77798;SDS011;66989;50.426;15.352;2024-02-15T11:43:09;16.20;;;10.10;;
77798;SDS011;66989;50.426;15.352;2024-02-15T11:48:10;12.43;;;8.95;;
77798;SDS011;66989;50.426;15.352;2024-02-15T11:50:36;18.33;;;12.10;;
77798;SDS011;66989;50.426;15.352;2024-02-15T11:53:04;14.65;;;10.00;;
77798;SDS011;66989;50.426;15.352;2024-02-15T11:55:34;19.00;;;11.73;;
77798;SDS011;66989;50.426;15.352;2024-02-15T11:58:01;24.67;;;14.02;;
77798;SDS011;66989;50.426;15.352;2024-02-15T12:00:30;15.70;;;9.23;;
77798;SDS011;66989;50.426;15.352;2024-02-15T12:03:14;16.70;;;11.13;;
77798;SDS011;66989;50.426;15.352;2024-02-15T12:06:00;36.35;;;18.45;;
77798;SDS011;66989;50.426;15.352;2024-02-15T12:08:47;22.45;;;13.52;;
77798;SDS011;66989;50.426;15.352;2024-02-15T12:11:32;15.93;;;11.27;;
77798;SDS011;66989;50.426;15.352;2024-02-15T12:14:16;24.83;;;14.73;;
77798;SDS011;66989;50.426;15.352;2024-02-15T12:17:07;17.55;;;11.93;;
77798;SDS011;66989;50.426;15.352;2024-02-15T12:19:55;20.90;;;13.63;;
77798;SDS011;66989;50.426;15.352;2024-02-15T12:22:28;20.13;;;13.85;;
77798;SDS011;66989;50.426;15.352;2024-02-15T12:25:02;22.13;;;15.05;;
77798;SDS011;66989;50.426;15.352;2024-02-15T12:27:36;18.10;;;12.43;;
77798;SDS011;66989;50.426;15.352;2024-02-15T12:30:05;22.38;;;14.57;;
77798;SDS011;66989;50.426;15.352;2024-02-15T12:32:32;25.48;;;16.65;;
77798;SDS011;66989;50.426;15.352;2024-02-15T12:35:10;23.00;;;13.95;;
77798;SDS011;66989;50.426;15.352;2024-02-15T12:37:47;23.95;;;14.98;;
77798;SDS011;66989;50.426;15.352;2024-02-15T12:40:29;16.13;;;12.15;;
77798;SDS011;66989;50.426;15.352;2024-02-15T12:42:55;18.17;;;12.93;;
77798;SDS011;66989;50.426;15.352;2024-02-15T12:45:21;23.10;;;13.18;;
77798;SDS011;66989;50.426;15.352;2024-02-15T12:47:47;20.00;;;12.80;;
77798;SDS011;66989;50.426;15.352;2024-02-15T12:50:18;19.55;;;13.35;;
77798;SDS011;66989;50.426;15.352;2024-02-15T12:52:54;23.70;;;13.80;;
77798;SDS011;66989;50.426;15.352;2024-02-15T12:55:32;23.05;;;12.95;;
77798;SDS011;66989;50.426;15.352;2024-02-15T12:58:03;21.58;;;14.77;;
77798;SDS011;66989;50.426;15.352;2024-02-15T13:00:39;18.90;;;14.63;;
77798;SDS011;66989;50.426;15.352;2024-02-15T13:03:05;18.63;;;13.40;;
77798;SDS011;66989;50.426;15.352;2024-02-15T13:05:34;19.55;;;13.02;;
77798;SDS011;66989;50.426;15.352;2024-02-15T13:08:04;18.02;;;13.80;;
77798;SDS011;66989;50.426;15.352;2024-02-15T13:10:35;19.77;;;13.55;;
77798;SDS011;66989;50.426;15.352;2024-02-15T13:13:00;18.55;;;13.95;;
77798;SDS011;66989;50.426;15.352;2024-02-15T13:15:26;18.48;;;12.13;;
77798;SDS011;66989;50.426;15.352;2024-02-15T13:17:53;18.30;;;13.30;;
77798;SDS011;66989;50.426;15.352;2024-02-15T13:20:20;17.73;;;12.35;;
77798;SDS011;66989;50.426;15.352;2024-02-15T13:22:55;16.75;;;12.95;;
77798;SDS011;66989;50.426;15.352;2024-02-15T13:25:25;15.27;;;10.75;;
77798;SDS011;66989;50.426;15.352;2024-02-15T13:27:50;18.58;;;13.68;;
77798;SDS011;66989;50.426;15.352;2024-02-15T13:30:16;20.20;;;14.10;;
77798;SDS011;66989;50.426;15.352;2024-02-15T13:32:46;19.05;;;14.70;;
77798;SDS011;66989;50.426;15.352;2024-02-15T13:35:11;19.67;;;13.82;;
77798;SDS011;66989;50.426;15.352;2024-02-15T13:37:48;20.13;;;15.60;;
77798;SDS011;66989;50.426;15.352;2024-02-15T13:40:14;22.45;;;13.95;;
77798;SDS011;66989;50.426;15.352;2024-02-15T13:42:46;22.17;;;16.35;;
77798;SDS011;66989;50.426;15.352;2024-02-15T13:45:19;19.63;;;13.80;;
77798;SDS011;66989;50.426;15.352;2024-02-15T13:47:47;20.70;;;15.18;;
77798;SDS011;66989;50.426;15.352;2024-02-15T13:50:13;21.20;;;16.00;;
77798;SDS011;66989;50.426;15.352;2024-02-15T13:52:40;22.70;;;16.02;;
77798;SDS011;66989;50.426;15.352;2024-02-15T13:55:09;23.10;;;16.02;;
77798;SDS011;66989;50.426;15.352;2024-02-15T13:57:43;20.48;;;14.85;;
77798;SDS011;66989;50.426;15.352;2024-02-15T14:00:09;21.90;;;14.85;;
77798;SDS011;66989;50.426;15.352;2024-02-15T14:02:42;20.83;;;14.57;;
77798;SDS011;66989;50.426;15.352;2024-02-15T14:05:08;20.30;;;13.45;;
77798;SDS011;66989;50.426;15.352;2024-02-15T14:07:34;20.23;;;14.45;;
77798;SDS011;66989;50.426;15.352;2024-02-15T14:10:04;22.25;;;14.15;;
77798;SDS011;66989;50.426;15.352;2024-02-15T14:12:30;20.02;;;13.50;;
77798;SDS011;66989;50.426;15.352;2024-02-15T14:14:55;17.48;;;13.07;;
77798;SDS011;66989;50.426;15.352;2024-02-15T14:17:21;22.02;;;14.27;;
77798;SDS011;66989;50.426;15.352;2024-02-15T14:19:47;21.98;;;15.18;;
77798;SDS011;66989;50.426;15.352;2024-02-15T14:22:13;23.50;;;14.13;;
77798;SDS011;66989;50.426;15.352;2024-02-15T14:24:44;25.80;;;16.50;;
77798;SDS011;66989;50.426;15.352;2024-02-15T14:27:10;26.00;;;15.85;;
77798;SDS011;66989;50.426;15.352;2024-02-15T14:29:36;23.88;;;16.58;;
77798;SDS011;66989;50.426;15.352;2024-02-15T14:32:24;27.23;;;16.55;;
77798;SDS011;66989;50.426;15.352;2024-02-15T14:35:08;28.23;;;17.10;;
77798;SDS011;66989;50.426;15.352;2024-02-15T14:37:34;27.95;;;16.25;;